Etusivu
METAR-TAF:

METAR-TAF

Lentoasemat :

Huesca, Espanja

Leveyspiiri: 42-04-32N, Pituuspiiri: 0-18-58W, korkeus merenpinnasta: 539 m

Tämänhetkinen sää

Tämä raportti tehtiin 39 minuuttia sitten, kello 19.30 UTC
Tuuli 1 kn eri suunnista
Lämpötila 22°C
Kosteus 53%
Ilmanpaine 1020 hPa
Näkyvyys 10 km tai enemmän

METAR: LEHC 231930Z AUTO VRB01KT 9999 NCD 22/12 Q1020

Aika: 22:09 (20:09 UTC)

Sääennuste

Tämä raportti tehtiin 6 tuntia ja 9 minuuttia sitten, kello 14.00 UTC
Ennuste voimassa 23. päivästä klo 15 UTC - 24. päivään klo 15 UTC
Tuuli 5 kn etelästä
Näkyvyys 10 km tai enemmän
Muutamia pilviä 2000 ft:n korkeudessa
Tulossa
23. päivästä klo 20 UTC - 23. päivään klo 22 UTC
Tuuli 8 kn idästä/koillisesta

TAF: LEHC 231400Z 2315/2415 18005KT 9999 FEW020 TX31/2414Z TN18/2405Z BECMG 2320/2322 07008KT

Säähavainnot ja -ennusteet yli 4000 lentoasemalta (METAR- ja TAF-raportit).

Käytössä olevat sääasemat on merkitty karttaan keltaisilla ja punaisilla pisteillä.

Aseta hiiri pisteen päälle nähdäksesi sääaseman nimen.

Klikkaa sitten nähdäksesi säähavainnot ja -ennusteet.

Kartan vaihtaminen: klikkaa mustalla rastilla varustettuja vihreitä pisteitä, niin voit zoomata sisään; viivalla varustettua vihreää pistettä, niin voit zoomata ulos tai vihreitä nuolia, niin pääset viereisille kartoille.


METAR-TAF: